KSGJ

Northeast Florida Regional Airport

St Augustine, Florida, USA
METAR KSGJ 110356Z AUTO 26004KT 10SM OVC028 08/05 A3019 RMK AO2 SLP222 T00780050
Observed Flight Rules
Dec-11 @ 03:56 UTC (37 minutes ago) Marginal Visual Flight Rules
Wind Visibility Clouds
260° at 4 knots 10 miles
  • Overcast at 2,800' AGL
Temperatures Readings
Current 8°C / 46°F
Dewpoint 5°C / 41°F
Humidity 82%
Altimeter 30.19" Hg
Pressure 1022.2 hPa
Elevation 3
METAR KSGJ 110356Z AUTO 26004KT 10SM OVC028 08/05 A3019 RMK AO2 SLP222 T00780050
Observed Flight Rules
Dec-11 @ 03:56 UTC
(37 minutes ago)
MVFR
Wind Visibility
260° at 4 knots 10 miles
Clouds
  • Overcast at 2,800' AGL
Temperature Dewpoint
8°C / 46°F 5°C / 41°F
Humidity Altimeter Pressure
82% 30.19" Hg 1022.2 hPa